createdAt,value
2018-03-08T00:01:39.728Z,15.73
2018-03-08T00:03:45.556Z,15.42
2018-03-08T00:05:51.341Z,15.68
2018-03-08T00:07:57.082Z,15.11
2018-03-08T00:10:05.482Z,15.11
2018-03-08T00:12:11.253Z,14.78
2018-03-08T00:14:16.773Z,15.42
2018-03-08T00:16:22.036Z,15.61
2018-03-08T00:18:27.917Z,15.05
2018-03-08T00:20:33.463Z,15.86
2018-03-08T00:22:39.069Z,15.61
2018-03-08T00:24:44.417Z,15.04
2018-03-08T00:26:50.526Z,15.70
2018-03-08T00:28:56.644Z,15.47
2018-03-08T00:31:03.215Z,15.45
2018-03-08T00:33:09.593Z,15.53
2018-03-08T00:35:15.427Z,16.08
2018-03-08T00:37:21.141Z,16.01
2018-03-08T00:39:26.997Z,15.94
2018-03-08T00:41:33.181Z,16.62
2018-03-08T00:43:39.233Z,16.05
2018-03-08T00:45:45.908Z,15.35
2018-03-08T00:47:51.705Z,16.10
2018-03-08T00:49:57.874Z,15.44
2018-03-08T00:52:07.917Z,15.23
2018-03-08T00:54:14.582Z,16.13
2018-03-08T00:56:20.702Z,15.86
2018-03-08T00:58:26.845Z,15.98
2018-03-08T01:00:34.063Z,16.07
2018-03-08T01:02:39.376Z,15.45
2018-03-08T01:04:45.595Z,15.58
2018-03-08T01:06:51.373Z,15.26
2018-03-08T01:08:57.416Z,16.39
2018-03-08T01:11:04.924Z,16.70
2018-03-08T01:13:11.354Z,15.04
2018-03-08T01:15:17.170Z,15.37
2018-03-08T01:17:22.767Z,15.29
2018-03-08T01:19:29.815Z,14.37
2018-03-08T01:21:35.924Z,15.56
2018-03-08T01:23:41.663Z,15.42
2018-03-08T01:25:47.793Z,15.35
2018-03-08T01:27:53.769Z,16.42
2018-03-08T01:29:59.685Z,15.05
2018-03-08T01:32:06.730Z,14.50
2018-03-08T01:34:12.893Z,14.77
2018-03-08T01:36:27.016Z,14.70
2018-03-08T01:38:32.756Z,14.87
2018-03-08T01:40:38.686Z,15.56
2018-03-08T01:42:44.874Z,15.76
2018-03-08T01:44:51.107Z,15.18
2018-03-08T01:46:56.343Z,14.99
2018-03-08T01:49:03.877Z,15.37
2018-03-08T01:51:10.008Z,15.44
2018-03-08T01:53:16.135Z,16.27
2018-03-08T01:55:22.064Z,14.31
2018-03-08T01:57:27.764Z,13.51
2018-03-08T01:59:33.540Z,13.76
2018-03-08T02:01:39.814Z,14.63
2018-03-08T02:03:45.699Z,15.88
2018-03-08T02:05:51.399Z,15.14
2018-03-08T02:07:57.488Z,15.68
2018-03-08T02:10:06.726Z,15.58
2018-03-08T02:12:13.522Z,15.60
2018-03-08T02:14:19.147Z,15.44
2018-03-08T02:16:24.668Z,15.05
2018-03-08T02:18:30.097Z,15.72
2018-03-08T02:20:35.805Z,15.92
2018-03-08T02:22:41.894Z,16.88
2018-03-08T02:24:47.164Z,15.94
2018-03-08T02:26:53.856Z,15.38
2018-03-08T02:29:01.955Z,16.70
2018-03-08T02:31:07.919Z,16.34
2018-03-08T02:33:13.469Z,16.01
2018-03-08T02:35:19.076Z,15.60
2018-03-08T02:37:25.600Z,15.48
2018-03-08T02:39:30.837Z,15.34
2018-03-08T02:41:36.920Z,16.27
2018-03-08T02:43:42.256Z,16.47
2018-03-08T02:45:48.288Z,16.41
2018-03-08T02:47:54.304Z,16.58
2018-03-08T02:50:01.033Z,16.77
2018-03-08T02:52:08.326Z,16.90
2018-03-08T02:54:13.829Z,16.55
2018-03-08T02:56:20.077Z,16.61
2018-03-08T02:58:26.968Z,16.14
2018-03-08T03:00:33.250Z,16.20
2018-03-08T03:02:39.309Z,16.82
2018-03-08T03:04:55.884Z,17.24
2018-03-08T03:07:04.866Z,17.02
2018-03-08T03:09:11.300Z,16.78
2018-03-08T03:11:17.476Z,17.52
2018-03-08T03:13:23.563Z,17.41
2018-03-08T03:15:29.777Z,17.14
2018-03-08T03:17:35.490Z,16.85
2018-03-08T03:19:41.387Z,17.45
2018-03-08T03:21:46.743Z,17.61
2018-03-08T03:23:52.569Z,16.93
2018-03-08T03:25:58.543Z,17.32
2018-03-08T03:28:06.924Z,17.04
2018-03-08T03:30:12.923Z,17.18
2018-03-08T03:32:19.269Z,16.59
2018-03-08T03:34:25.363Z,17.26
2018-03-08T03:36:31.127Z,17.23
2018-03-08T03:38:37.052Z,17.86
2018-03-08T03:40:42.924Z,17.13
2018-03-08T03:42:49.623Z,17.51
2018-03-08T03:44:55.688Z,17.69
2018-03-08T03:47:04.396Z,16.60
2018-03-08T03:49:10.652Z,16.96
2018-03-08T03:51:15.969Z,16.54
2018-03-08T03:53:21.716Z,16.77
2018-03-08T03:55:28.236Z,16.93
2018-03-08T03:57:34.079Z,16.67
2018-03-08T03:59:40.784Z,17.15
2018-03-08T04:01:46.897Z,17.22
2018-03-08T04:03:52.843Z,17.04
2018-03-08T04:05:58.621Z,17.63
2018-03-08T04:08:06.523Z,17.69
2018-03-08T04:10:11.852Z,16.08
2018-03-08T04:12:17.889Z,17.11
2018-03-08T04:14:23.448Z,16.47
2018-03-08T04:16:29.148Z,15.66
2018-03-08T04:18:34.772Z,16.10
2018-03-08T04:20:40.622Z,16.22
2018-03-08T04:22:46.740Z,16.59
2018-03-08T04:24:52.021Z,16.19
2018-03-08T04:26:58.144Z,14.95
2018-03-08T04:29:05.964Z,16.63
2018-03-08T04:31:11.420Z,16.55
2018-03-08T04:33:17.452Z,15.62
2018-03-08T04:35:23.264Z,15.76
2018-03-08T04:37:29.264Z,15.74
2018-03-08T04:39:34.560Z,15.53
2018-03-08T04:41:40.710Z,15.67
2018-03-08T04:43:46.714Z,16.63
2018-03-08T04:45:52.136Z,15.64
2018-03-08T04:47:58.001Z,15.11
2018-03-08T04:50:07.030Z,15.66
2018-03-08T04:52:12.418Z,16.13
2018-03-08T04:54:19.142Z,15.17
2018-03-08T04:56:25.533Z,15.90
2018-03-08T04:58:31.104Z,15.71
2018-03-08T05:00:36.757Z,15.88
2018-03-08T05:02:42.161Z,16.45
2018-03-08T05:04:47.511Z,16.04
2018-03-08T05:06:52.912Z,16.55
2018-03-08T05:08:58.640Z,16.94
2018-03-08T05:11:06.803Z,16.00
2018-03-08T05:13:12.504Z,15.58
2018-03-08T05:15:17.831Z,16.25
2018-03-08T05:17:23.430Z,16.60
2018-03-08T05:19:29.422Z,16.18
2018-03-08T05:21:34.597Z,16.55
2018-03-08T05:23:40.723Z,16.04
2018-03-08T05:25:46.368Z,16.64
2018-03-08T05:27:51.821Z,16.37
2018-03-08T05:29:57.878Z,16.23
2018-03-08T05:32:06.516Z,16.31
2018-03-08T05:34:12.642Z,16.84
2018-03-08T05:36:18.123Z,16.87
2018-03-08T05:38:24.768Z,16.26
2018-03-08T05:40:30.022Z,16.16
2018-03-08T05:42:35.704Z,15.36
2018-03-08T05:44:40.948Z,15.38
2018-03-08T05:46:46.305Z,16.03
2018-03-08T05:48:52.329Z,15.43
2018-03-08T05:51:02.828Z,15.87
2018-03-08T05:53:08.783Z,15.24
2018-03-08T05:55:14.188Z,15.25
2018-03-08T05:57:21.776Z,15.02
2018-03-08T05:59:32.416Z,15.19
2018-03-08T06:01:41.561Z,15.04
2018-03-08T06:03:52.474Z,15.55
2018-03-08T06:05:59.487Z,15.32
2018-03-08T06:08:08.194Z,15.36
2018-03-08T06:10:16.928Z,15.21
2018-03-08T06:12:22.683Z,14.89
2018-03-08T06:14:28.599Z,14.57
2018-03-08T06:16:33.894Z,14.01
2018-03-08T06:18:39.732Z,14.48
2018-03-08T06:20:45.570Z,13.95
2018-03-08T06:22:52.893Z,14.87
2018-03-08T06:24:58.704Z,14.79
2018-03-08T06:27:04.484Z,15.35
2018-03-08T06:29:10.032Z,14.23
2018-03-08T06:31:15.886Z,15.39
2018-03-08T06:33:21.779Z,14.98
2018-03-08T06:35:27.044Z,13.87
2018-03-08T06:37:32.436Z,15.44
2018-03-08T06:39:38.087Z,13.74
2018-03-08T06:41:43.522Z,14.97
2018-03-08T06:43:49.915Z,14.28
2018-03-08T06:45:55.493Z,14.50
2018-03-08T06:48:01.562Z,13.79
2018-03-08T06:50:06.974Z,14.13
2018-03-08T06:52:13.656Z,14.45
2018-03-08T06:54:19.588Z,14.80
2018-03-08T06:56:25.140Z,14.40
2018-03-08T06:58:31.038Z,14.35
2018-03-08T07:00:37.489Z,15.04
2018-03-08T07:02:43.168Z,14.93
2018-03-08T07:04:49.998Z,15.35
2018-03-08T07:06:55.768Z,14.91
2018-03-08T07:09:02.972Z,15.99
2018-03-08T07:11:08.952Z,15.45
2018-03-08T07:13:15.095Z,15.21
2018-03-08T07:15:22.624Z,15.44
2018-03-08T07:17:28.385Z,16.13
2018-03-08T07:19:35.386Z,15.45
2018-03-08T07:21:41.262Z,16.18
2018-03-08T07:23:47.824Z,16.19
2018-03-08T07:25:54.564Z,16.78
2018-03-08T07:27:59.932Z,16.85
2018-03-08T07:30:09.545Z,15.83
2018-03-08T07:32:15.837Z,16.41
2018-03-08T07:34:23.746Z,16.65
2018-03-08T07:36:30.125Z,16.88
2018-03-08T07:38:36.288Z,17.15
2018-03-08T07:40:42.748Z,17.17
2018-03-08T07:42:48.176Z,16.48
2018-03-08T07:44:54.392Z,16.73
2018-03-08T07:47:01.863Z,16.73
2018-03-08T07:49:07.168Z,16.06
2018-03-08T07:51:12.576Z,16.18
2018-03-08T07:53:18.312Z,16.17
2018-03-08T07:55:23.846Z,15.62
2018-03-08T07:57:29.200Z,15.54
2018-03-08T07:59:34.845Z,15.21
2018-03-08T08:01:40.261Z,15.83
2018-03-08T08:03:50.238Z,15.90
2018-03-08T08:07:08.178Z,15.82
2018-03-08T08:09:13.708Z,17.03
2018-03-08T08:11:19.067Z,17.07
2018-03-08T08:13:25.273Z,16.32
2018-03-08T08:15:30.681Z,16.24
2018-03-08T08:17:36.446Z,16.93
2018-03-08T08:19:41.797Z,16.73
2018-03-08T08:21:47.304Z,16.93
2018-03-08T08:23:53.006Z,16.20
2018-03-08T08:25:58.432Z,16.91
2018-03-08T08:28:05.240Z,16.17
2018-03-08T08:30:11.053Z,15.97
2018-03-08T08:32:16.530Z,16.24
2018-03-08T08:34:22.525Z,16.41
2018-03-08T08:36:28.228Z,15.93
2018-03-08T08:38:34.941Z,15.63
2018-03-08T08:40:40.435Z,16.21
2018-03-08T08:42:46.208Z,16.62
2018-03-08T08:44:51.500Z,16.82
2018-03-08T08:46:56.914Z,16.69
2018-03-08T08:49:03.457Z,16.67
2018-03-08T08:51:09.542Z,17.09
2018-03-08T08:53:17.050Z,17.07
2018-03-08T08:55:23.416Z,16.97
2018-03-08T08:57:32.880Z,16.42
2018-03-08T08:59:38.289Z,16.28
2018-03-08T09:01:45.462Z,16.40
2018-03-08T09:03:51.275Z,15.90
2018-03-08T09:05:57.488Z,15.97
2018-03-08T09:08:04.694Z,16.20
2018-03-08T09:10:12.975Z,16.01
2018-03-08T09:12:18.194Z,16.35
2018-03-08T09:14:25.842Z,16.17
2018-03-08T09:16:31.103Z,16.22
2018-03-08T09:18:38.691Z,16.43
2018-03-08T09:20:45.742Z,16.52
2018-03-08T09:22:51.397Z,17.05
2018-03-08T09:27:08.346Z,17.35
2018-03-08T09:29:14.589Z,17.25
2018-03-08T09:31:20.049Z,17.36
2018-03-08T09:33:25.346Z,16.85
2018-03-08T09:35:30.646Z,16.42
2018-03-08T09:37:37.922Z,16.92
2018-03-08T09:39:43.649Z,17.11
2018-03-08T09:41:48.942Z,17.52
2018-03-08T09:43:55.117Z,17.78
2018-03-08T09:46:01.849Z,17.41
2018-03-08T09:48:07.228Z,17.52
2018-03-08T09:50:12.530Z,17.47
2018-03-08T09:52:18.771Z,17.12
2018-03-08T09:54:24.088Z,17.46
2018-03-08T09:56:29.526Z,16.63
2018-03-08T09:58:35.121Z,16.76
2018-03-08T10:00:40.457Z,16.55
2018-03-08T10:02:46.720Z,16.41
2018-03-08T10:04:52.893Z,16.55
2018-03-08T10:06:58.627Z,15.75
2018-03-08T10:09:04.179Z,16.18
2018-03-08T10:11:09.708Z,16.95
2018-03-08T10:13:15.036Z,16.97
2018-03-08T10:15:20.433Z,16.20
2018-03-08T10:17:26.254Z,16.97
2018-03-08T10:19:32.104Z,16.58
2018-03-08T10:21:44.675Z,16.83
2018-03-08T10:23:43.089Z,16.52
2018-03-08T10:25:48.313Z,17.02
2018-03-08T10:27:53.599Z,17.47
2018-03-08T10:29:59.867Z,17.24
2018-03-08T10:32:09.915Z,17.56
2018-03-08T10:34:15.182Z,17.30
2018-03-08T10:36:20.769Z,17.83
2018-03-08T10:38:26.141Z,17.86
2018-03-08T10:44:43.616Z,18.19
2018-03-08T10:46:48.805Z,18.08
2018-03-08T10:51:00.662Z,17.00
2018-03-08T10:53:07.137Z,17.78
2018-03-08T10:55:12.348Z,17.41
2018-03-08T10:57:17.941Z,17.40
2018-03-08T10:59:23.251Z,17.18
2018-03-08T11:01:28.758Z,17.39
2018-03-08T11:03:38.235Z,17.36
2018-03-08T11:05:47.804Z,17.02
2018-03-08T11:08:02.213Z,16.57
2018-03-08T11:10:08.711Z,16.18
2018-03-08T11:12:14.040Z,16.72
2018-03-08T11:14:19.295Z,17.21
2018-03-08T11:16:25.531Z,15.98
2018-03-08T11:18:31.285Z,16.23
2018-03-08T11:20:36.621Z,16.62
2018-03-08T11:22:42.562Z,16.45
2018-03-08T11:24:48.563Z,16.06
2018-03-08T11:26:53.888Z,16.71
2018-03-08T11:28:59.968Z,16.42
2018-03-08T11:31:08.746Z,17.71
2018-03-08T11:33:14.085Z,18.62
2018-03-08T11:35:19.417Z,19.04
2018-03-08T11:37:24.901Z,19.32
2018-03-08T11:39:31.120Z,19.41
2018-03-08T11:41:36.656Z,19.34
2018-03-08T11:43:42.853Z,19.46
2018-03-08T11:45:48.580Z,19.50
2018-03-08T11:47:54.580Z,19.63
2018-03-08T11:50:01.495Z,19.68
2018-03-08T11:52:06.737Z,19.78
2018-03-08T11:54:16.299Z,19.84
2018-03-08T11:56:21.782Z,19.64
2018-03-08T11:58:27.603Z,19.71
2018-03-08T12:00:34.096Z,19.64
2018-03-08T12:02:41.116Z,19.62
2018-03-08T12:04:46.614Z,19.71
2018-03-08T12:06:51.903Z,19.81
2018-03-08T12:08:57.764Z,19.88
2018-03-08T12:11:05.664Z,19.90
2018-03-08T12:13:11.248Z,19.89
2018-03-08T12:16:42.269Z,19.95
2018-03-08T12:18:47.574Z,19.93
2018-03-08T12:20:53.572Z,19.93
2018-03-08T12:22:59.089Z,19.92
2018-03-08T12:25:07.099Z,19.93
2018-03-08T12:27:12.653Z,20.01
2018-03-08T12:29:18.043Z,20.04
2018-03-08T12:31:23.343Z,20.10
2018-03-08T12:33:29.085Z,20.22
2018-03-08T12:35:34.433Z,20.26
2018-03-08T12:37:39.784Z,20.55
2018-03-08T12:39:47.331Z,20.81
2018-03-08T12:41:52.694Z,20.82
2018-03-08T12:43:58.128Z,20.63
2018-03-08T12:46:05.394Z,20.60
2018-03-08T12:48:10.736Z,20.42
2018-03-08T12:50:16.176Z,20.39
2018-03-08T12:52:21.734Z,20.47
2018-03-08T12:54:27.478Z,21.10
2018-03-08T12:56:32.714Z,21.01
2018-03-08T12:58:38.326Z,20.83
2018-03-08T13:00:43.659Z,20.80
2018-03-08T13:02:48.960Z,20.97
2018-03-08T13:04:54.485Z,21.23
2018-03-08T13:07:01.687Z,21.56
2018-03-08T13:09:07.262Z,22.13
2018-03-08T13:11:13.038Z,21.90
2018-03-08T13:13:18.619Z,21.78
2018-03-08T13:15:24.081Z,21.52
2018-03-08T13:17:29.686Z,21.49
2018-03-08T13:19:35.015Z,21.56
2018-03-08T13:21:40.289Z,21.86
2018-03-08T13:23:45.871Z,21.74
2018-03-08T13:25:52.231Z,21.54
2018-03-08T13:27:57.645Z,21.51
2018-03-08T13:30:05.437Z,21.56
2018-03-08T13:32:11.029Z,21.63
2018-03-08T13:34:17.368Z,21.58
2018-03-08T13:36:23.053Z,21.54
2018-03-08T13:38:28.491Z,21.47
2018-03-08T13:40:33.981Z,21.49
2018-03-08T13:42:40.077Z,21.45
2018-03-08T13:44:45.417Z,21.42
2018-03-08T13:46:50.731Z,21.43
2018-03-08T13:48:56.572Z,21.41
2018-03-08T13:51:05.941Z,21.36
2018-03-08T13:53:11.217Z,21.33
2018-03-08T13:55:17.513Z,21.30
2018-03-08T13:57:22.804Z,21.23
2018-03-08T13:59:28.115Z,21.21
2018-03-08T14:01:33.912Z,21.19
2018-03-08T14:03:39.298Z,21.13
2018-03-08T14:05:44.676Z,21.14
2018-03-08T14:07:50.307Z,21.18
2018-03-08T14:09:58.609Z,21.15
2018-03-08T14:12:06.315Z,21.14
2018-03-08T14:14:12.165Z,21.18
2018-03-08T14:16:17.977Z,21.21
2018-03-08T14:18:28.340Z,21.37
2018-03-08T14:20:39.516Z,21.51
2018-03-08T14:22:48.545Z,21.59
2018-03-08T14:24:53.823Z,21.63
2018-03-08T14:26:59.423Z,22.00
2018-03-08T14:29:05.874Z,22.24
2018-03-08T14:31:11.168Z,22.17
2018-03-08T14:33:16.771Z,22.31
2018-03-08T14:35:22.084Z,22.44
2018-03-08T14:37:27.400Z,22.54
2018-03-08T14:39:33.178Z,22.58
2018-03-08T14:41:39.054Z,22.58
2018-03-08T14:43:44.542Z,22.75
2018-03-08T14:45:50.520Z,22.86
2018-03-08T14:47:56.156Z,22.76
2018-03-08T14:50:03.406Z,22.81
2018-03-08T14:52:09.215Z,22.94
2018-03-08T14:54:14.518Z,23.06
2018-03-08T14:56:22.910Z,22.94
2018-03-08T14:58:29.096Z,23.03
2018-03-08T15:00:34.637Z,22.91
2018-03-08T15:02:39.989Z,23.03
2018-03-08T15:04:45.768Z,23.19
2018-03-08T15:06:51.138Z,23.30
2018-03-08T15:08:56.409Z,23.18
2018-03-08T15:11:05.154Z,23.26
2018-03-08T15:13:10.500Z,23.26
2018-03-08T15:15:15.732Z,23.15
2018-03-08T15:17:21.453Z,23.06
2018-03-08T15:19:26.773Z,22.99
2018-03-08T15:21:32.044Z,22.88
2018-03-08T15:23:37.636Z,22.97
2018-03-08T15:25:43.455Z,23.07
2018-03-08T15:27:49.462Z,23.06
2018-03-08T15:29:55.209Z,23.07
2018-03-08T15:32:01.272Z,22.96
2018-03-08T15:34:07.426Z,22.82
2018-03-08T15:36:13.165Z,22.74
2018-03-08T15:38:23.080Z,22.66
2018-03-08T15:40:29.819Z,22.57
2018-03-08T15:42:35.737Z,22.51
2018-03-08T15:44:41.090Z,22.44
2018-03-08T15:46:46.473Z,22.38
2018-03-08T15:48:52.114Z,22.32
2018-03-08T15:50:57.441Z,22.26
2018-03-08T15:53:02.814Z,22.22
2018-03-08T15:55:08.543Z,22.20
2018-03-08T15:57:13.846Z,22.14
2018-03-08T15:59:19.155Z,22.08
2018-03-08T16:01:24.776Z,22.03
2018-03-08T16:03:30.679Z,21.95
2018-03-08T16:05:36.168Z,21.85
2018-03-08T16:07:42.641Z,21.81
2018-03-08T16:09:57.188Z,21.76
2018-03-08T16:12:05.482Z,21.71
2018-03-08T16:14:11.868Z,21.69
2018-03-08T16:16:18.221Z,21.65
2018-03-08T16:18:24.224Z,21.65
2018-03-08T16:20:30.056Z,21.56
2018-03-08T16:22:35.770Z,21.49
2018-03-08T16:24:41.528Z,21.44
2018-03-08T16:26:47.240Z,21.41
2018-03-08T16:28:57.019Z,21.43
2018-03-08T16:31:03.722Z,21.37
2018-03-08T16:33:09.379Z,21.31
2018-03-08T16:35:14.864Z,21.33
2018-03-08T16:37:20.192Z,21.23
2018-03-08T16:39:26.819Z,21.27
2018-03-08T16:41:33.025Z,21.23
2018-03-08T16:43:38.783Z,21.19
2018-03-08T16:45:48.924Z,21.18
2018-03-08T16:47:54.510Z,21.13
2018-03-08T16:50:00.304Z,21.16
2018-03-08T16:52:06.309Z,21.13
2018-03-08T16:54:11.927Z,21.10
2018-03-08T16:56:17.437Z,21.09
2018-03-08T16:58:23.515Z,21.16
2018-03-08T17:00:29.745Z,21.08
2018-03-08T17:02:36.276Z,21.02
2018-03-08T17:04:42.552Z,20.98
2018-03-08T17:06:48.078Z,20.97
2018-03-08T17:08:53.920Z,20.99
2018-03-08T17:11:01.308Z,20.99
2018-03-08T17:13:06.822Z,20.98
2018-03-08T17:15:14.118Z,20.93
2018-03-08T17:17:23.465Z,20.96
2018-03-08T17:19:29.040Z,20.94
2018-03-08T17:21:36.913Z,20.88
2018-03-08T17:23:42.737Z,20.87
2018-03-08T17:25:48.591Z,20.90
2018-03-08T17:27:54.713Z,20.92
2018-03-08T17:30:00.928Z,20.92
2018-03-08T17:32:06.456Z,20.90
2018-03-08T17:34:13.160Z,20.89
2018-03-08T17:36:21.331Z,20.88
2018-03-08T17:38:29.598Z,20.89
2018-03-08T17:40:37.334Z,20.84
2018-03-08T17:42:43.234Z,20.81
2018-03-08T17:44:49.866Z,20.80
2018-03-08T17:46:59.434Z,20.85
2018-03-08T17:49:05.318Z,20.79
2018-03-08T17:51:10.792Z,20.85
2018-03-08T17:53:16.302Z,20.81
2018-03-08T17:55:23.387Z,20.82
2018-03-08T17:57:29.500Z,20.77
2018-03-08T17:59:36.563Z,20.75
2018-03-08T18:01:42.456Z,20.74
2018-03-08T18:03:49.073Z,20.72
2018-03-08T18:05:54.504Z,20.81
2018-03-08T18:08:00.850Z,20.76
2018-03-08T18:10:07.992Z,20.74
2018-03-08T18:12:13.844Z,20.70
2018-03-08T18:14:21.035Z,20.75
2018-03-08T18:16:26.679Z,20.74
2018-03-08T18:18:33.816Z,20.78
2018-03-08T18:20:39.663Z,20.81
2018-03-08T18:22:45.311Z,20.77
2018-03-08T18:24:51.839Z,20.77
2018-03-08T18:26:57.561Z,20.77
2018-03-08T18:29:11.369Z,20.75
2018-03-08T18:31:17.241Z,20.82
2018-03-08T18:33:23.090Z,20.74
2018-03-08T18:35:28.665Z,20.74
2018-03-08T18:39:43.909Z,20.78
2018-03-08T18:41:51.468Z,20.81
2018-03-08T18:43:57.710Z,20.81
2018-03-08T18:46:07.508Z,20.80
2018-03-08T18:48:14.824Z,20.77
2018-03-08T18:50:20.723Z,20.72
2018-03-08T18:52:26.648Z,20.71
2018-03-08T18:54:32.060Z,20.70
2018-03-08T18:56:38.178Z,20.74
2018-03-08T18:58:43.801Z,20.74
2018-03-08T19:00:49.253Z,20.76
2018-03-08T19:02:55.038Z,20.67
2018-03-08T19:05:01.851Z,20.78
2018-03-08T19:07:07.592Z,20.74
2018-03-08T19:09:13.153Z,20.77
2018-03-08T19:11:18.964Z,20.72
2018-03-08T19:13:24.471Z,20.78
2018-03-08T19:15:29.915Z,20.75
2018-03-08T19:17:35.814Z,20.73
2018-03-08T19:19:41.268Z,20.71
2018-03-08T19:21:46.689Z,20.70
2018-03-08T19:23:52.248Z,20.72
2018-03-08T19:25:57.820Z,20.67
2018-03-08T19:28:03.226Z,20.69
2018-03-08T19:30:09.407Z,20.71
2018-03-08T19:32:15.736Z,20.73
2018-03-08T19:34:20.992Z,20.72
2018-03-08T19:36:26.668Z,20.76
2018-03-08T19:38:32.621Z,20.73
2018-03-08T19:40:38.317Z,20.79
2018-03-08T19:42:44.364Z,20.71
2018-03-08T19:44:49.946Z,20.74
2018-03-08T19:46:55.472Z,20.75
2018-03-08T19:49:01.100Z,20.68
2018-03-08T19:51:07.309Z,20.69
2018-03-08T19:53:13.560Z,20.64
2018-03-08T19:55:19.174Z,20.71
2018-03-08T19:57:27.274Z,20.70
2018-03-08T19:59:32.699Z,20.69
2018-03-08T20:01:38.995Z,20.66
2018-03-08T20:03:44.468Z,20.64
2018-03-08T20:05:49.749Z,20.64
2018-03-08T20:07:55.496Z,20.58
2018-03-08T20:10:05.966Z,20.69
2018-03-08T20:12:12.162Z,20.58
2018-03-08T20:14:20.536Z,20.57
2018-03-08T20:16:29.321Z,20.58
2018-03-08T20:18:36.244Z,20.50
2018-03-08T20:20:42.663Z,20.46
2018-03-08T20:22:48.051Z,20.47
2018-03-08T20:24:53.331Z,20.48
2018-03-08T20:26:59.394Z,20.49
2018-03-08T20:29:04.840Z,20.44
2018-03-08T20:31:10.116Z,20.44
2018-03-08T20:33:15.677Z,20.37
2018-03-08T20:35:21.550Z,20.36
2018-03-08T20:37:26.921Z,20.36
2018-03-08T20:39:32.643Z,20.27
2018-03-08T20:41:38.813Z,20.27
2018-03-08T20:43:44.434Z,20.27
2018-03-08T20:45:50.736Z,20.25
2018-03-08T20:47:56.081Z,20.26
2018-03-08T20:50:01.445Z,20.28
2018-03-08T20:52:07.185Z,20.33
2018-03-08T20:54:12.489Z,20.27
2018-03-08T20:56:17.879Z,20.36
2018-03-08T20:58:23.506Z,20.41
2018-03-08T21:00:28.804Z,20.36
2018-03-08T21:02:34.202Z,20.37
2018-03-08T21:04:39.777Z,20.44
2018-03-08T21:06:45.037Z,20.47
2018-03-08T21:08:50.599Z,20.44
2018-03-08T21:10:56.956Z,20.33
2018-03-08T21:13:04.239Z,20.36
2018-03-08T21:15:09.884Z,20.32
2018-03-08T21:17:15.648Z,20.32
2018-03-08T21:19:21.078Z,20.39
2018-03-08T21:21:26.573Z,20.37
2018-03-08T21:23:36.931Z,20.37
2018-03-08T21:25:42.468Z,20.26
2018-03-08T21:27:47.921Z,20.17
2018-03-08T21:29:59.484Z,20.04
2018-03-08T21:32:05.357Z,19.99
2018-03-08T21:34:10.739Z,19.99
2018-03-08T21:36:16.411Z,19.95
2018-03-08T21:38:21.697Z,20.01
2018-03-08T21:40:28.153Z,20.02
2018-03-08T21:42:33.704Z,20.04
2018-03-08T21:44:39.031Z,19.99
2018-03-08T21:46:44.469Z,20.04
2018-03-08T21:48:50.107Z,20.05
2018-03-08T21:50:55.507Z,20.11
2018-03-08T21:53:00.803Z,20.27
2018-03-08T21:55:09.288Z,20.27
2018-03-08T21:57:14.555Z,20.33
2018-03-08T21:59:19.914Z,20.36
2018-03-08T22:01:25.469Z,20.38
2018-03-08T22:03:30.807Z,20.36
2018-03-08T22:05:36.650Z,20.33
2018-03-08T22:07:42.233Z,20.47
2018-03-08T22:09:47.779Z,20.50
2018-03-08T22:11:53.281Z,20.48
2018-03-08T22:14:01.829Z,20.54
2018-03-08T22:16:07.815Z,20.51
2018-03-08T22:18:13.120Z,20.58
2018-03-08T22:20:19.144Z,20.64
2018-03-08T22:22:25.693Z,20.64
2018-03-08T22:24:32.551Z,20.60
2018-03-08T22:26:38.128Z,20.59
2018-03-08T22:28:43.390Z,20.56
2018-03-08T22:30:50.102Z,20.65
2018-03-08T22:32:55.657Z,20.56
2018-03-08T22:35:02.176Z,20.57
2018-03-08T22:37:07.550Z,20.60
2018-03-08T22:39:13.225Z,20.53
2018-03-08T22:41:18.495Z,20.50
2018-03-08T22:43:26.706Z,20.63
2018-03-08T22:45:33.581Z,20.69
2018-03-08T22:47:38.812Z,20.61
2018-03-08T22:49:44.532Z,20.55
2018-03-08T22:51:50.030Z,20.35
2018-03-08T22:53:56.300Z,20.23
2018-03-08T22:56:03.605Z,20.19
2018-03-08T22:58:09.238Z,20.26
2018-03-08T23:00:14.595Z,20.11
2018-03-08T23:02:23.817Z,20.05
2018-03-08T23:04:29.499Z,19.99
2018-03-08T23:06:35.560Z,20.14
2018-03-08T23:08:40.883Z,20.07
2018-03-08T23:10:46.670Z,20.10
2018-03-08T23:12:52.017Z,20.03
2018-03-08T23:14:57.308Z,20.11
2018-03-08T23:17:05.163Z,20.00
2018-03-08T23:19:10.464Z,20.02
2018-03-08T23:21:15.976Z,19.92
2018-03-08T23:23:22.058Z,19.96
2018-03-08T23:25:27.425Z,19.90
2018-03-08T23:27:32.849Z,20.03
2018-03-08T23:29:38.691Z,20.08
2018-03-08T23:31:44.764Z,19.97
2018-03-08T23:33:50.140Z,20.03
2018-03-08T23:35:56.525Z,20.01
2018-03-08T23:38:03.544Z,19.99
2018-03-08T23:40:09.619Z,19.94
2018-03-08T23:42:15.956Z,19.93
2018-03-08T23:44:21.928Z,19.90
2018-03-08T23:46:27.888Z,19.94
2018-03-08T23:48:33.576Z,19.92
2018-03-08T23:50:38.876Z,19.91
2018-03-08T23:52:44.431Z,20.00
2018-03-08T23:54:50.486Z,20.05
2018-03-08T23:56:55.926Z,19.97
2018-03-08T23:59:03.606Z,19.92
